Time;durP1;ratioP1;P1;durP2;ratioP2;P2;SDS_P1;SDS_P2;PMS_P1;PMS_P2;Temp;Humidity;BMP_temperature;BMP_pressure;BME280_temperature;BME280_humidity;BME280_pressure;Samples;Min_cycle;Max_cycle;Signal;HPM_P1;HPM_P2
2023/05/01 00:02:26;;;;;;;15.30;8.90;;;16.00;85.60;;;;;;7388941;19;20003;-74
2023/05/01 00:04:54;;;;;;;13.50;8.23;;;16.00;85.80;;;;;;7390630;19;20007;-72
2023/05/01 00:07:23;;;;;;;15.45;8.77;;;16.00;85.50;;;;;;7389079;19;20031;-73
2023/05/01 00:09:56;;;;;;;12.82;8.75;;;16.00;86.30;;;;;;7390941;19;20020;-72
2023/05/01 00:12:30;;;;;;;16.00;8.65;;;16.00;85.60;;;;;;7412673;19;20025;-74
2023/05/01 00:15:42;;;;;;;13.90;8.50;;;15.90;85.50;;;;;;7394958;19;20021;-79
2023/05/01 00:18:17;;;;;;;;;;;15.90;85.40;;;;;;7397793;19;20007;-79
2023/05/01 00:21:09;;;;;;;13.88;7.90;;;16.00;85.20;;;;;;7399221;19;19910;-79
2023/05/01 00:23:47;;;;;;;14.68;8.48;;;16.00;84.80;;;;;;7421853;19;20011;-83
2023/05/01 00:26:59;;;;;;;15.70;8.65;;;16.00;84.60;;;;;;7398965;19;20002;-81
2023/05/01 00:29:53;;;;;;;;;;;;;;;;;;;;;
2023/05/01 00:32:59;;;;;;;;;;;;;;;;;;;;;
2023/05/01 00:36:27;;;;;;;14.25;8.90;;;15.80;85.00;;;;;;7396483;19;20002;-79
2023/05/01 00:39:19;;;;;;;17.40;8.30;;;15.80;85.30;;;;;;7397281;19;20001;-79
2023/05/01 00:42:21;;;;;;;16.85;9.25;;;15.80;85.50;;;;;;7395056;19;20010;-79
2023/05/01 00:45:37;;;;;;;15.77;8.75;;;15.80;85.40;;;;;;7393623;19;20069;-80
2023/05/01 00:51:46;;;;;;;14.65;8.95;;;15.80;85.50;;;;;;7448300;19;20666;-80
2023/05/01 00:54:31;;;;;;;;;;;;;;;;;;;;;
2023/05/01 00:57:21;;;;;;;17.85;9.48;;;15.70;85.10;;;;;;7423006;19;20485;-78
2023/05/01 01:00:07;;;;;;;17.52;9.27;;;15.60;85.20;;;;;;7441819;19;20018;-79
2023/05/01 01:02:36;;;;;;;15.20;9.13;;;15.60;85.40;;;;;;7418239;19;20017;-74
2023/05/01 01:05:06;;;;;;;14.95;9.60;;;15.60;85.50;;;;;;7418187;19;20071;-75
2023/05/01 01:07:49;;;;;;;14.40;9.27;;;15.50;85.70;;;;;;7415965;19;20007;-74
2023/05/01 01:10:31;;;;;;;14.55;9.52;;;15.50;85.70;;;;;;7417765;19;20010;-77
2023/05/01 01:13:08;;;;;;;14.77;10.05;;;15.50;85.80;;;;;;7418683;19;20006;-76
2023/05/01 01:15:46;;;;;;;12.95;9.20;;;15.50;85.60;;;;;;7415476;19;20015;-73
2023/05/01 01:18:20;;;;;;;12.77;8.93;;;15.50;85.50;;;;;;7438164;19;20007;-76
2023/05/01 01:20:57;;;;;;;24.00;8.80;;;15.40;85.30;;;;;;7411015;19;20292;-74
2023/05/01 01:23:56;;;;;;;16.30;8.77;;;15.50;85.40;;;;;;7411177;19;19999;-74
2023/05/01 01:26:56;;;;;;;14.00;8.20;;;15.40;85.20;;;;;;7411794;19;20023;-74
2023/05/01 01:29:50;;;;;;;12.98;8.73;;;15.50;85.20;;;;;;7411984;19;20050;-74
2023/05/01 01:32:51;;;;;;;16.75;9.05;;;15.50;84.90;;;;;;7413634;19;20089;-74
2023/05/01 01:35:27;;;;;;;12.95;8.60;;;15.40;85.00;;;;;;7413919;19;20027;-74
2023/05/01 01:38:03;;;;;;;17.73;9.50;;;15.40;85.00;;;;;;7412173;19;20005;-74
2023/05/01 01:40:39;;;;;;;13.73;9.40;;;15.40;85.20;;;;;;7413632;19;20006;-74
2023/05/01 01:43:10;;;;;;;15.75;9.60;;;15.40;85.40;;;;;;7413566;19;20007;-74
2023/05/01 01:45:41;;;;;;;17.35;9.95;;;15.40;86.40;;;;;;7412128;19;20010;-74
2023/05/01 01:48:13;;;;;;;15.88;10.27;;;15.30;85.60;;;;;;7438671;19;20010;-74
2023/05/01 01:50:47;;;;;;;17.42;9.90;;;15.20;85.80;;;;;;7414872;19;20015;-74
2023/05/01 01:53:20;;;;;;;14.93;9.88;;;15.00;86.40;;;;;;7414077;19;20044;-74
2023/05/01 01:55:51;;;;;;;16.83;9.65;;;15.00;86.90;;;;;;7413372;19;20062;-74
2023/05/01 01:58:26;;;;;;;13.68;9.40;;;15.00;87.20;;;;;;7413543;19;20054;-74
2023/05/01 02:00:56;;;;;;;18.25;9.45;;;15.00;87.20;;;;;;7399434;19;20023;-74
2023/05/01 02:03:27;;;;;;;14.85;9.30;;;15.00;87.20;;;;;;7405892;19;20006;-74
2023/05/01 02:06:00;;;;;;;16.45;9.80;;;15.00;87.30;;;;;;7383752;19;20575;-75
2023/05/01 02:08:31;;;;;;;24.65;9.32;;;15.00;86.90;;;;;;7383905;19;20361;-74
2023/05/01 02:11:02;;;;;;;12.73;8.60;;;15.00;86.60;;;;;;7383474;19;20007;-74
2023/05/01 02:13:32;;;;;;;20.15;9.20;;;15.10;86.20;;;;;;7384223;19;20013;-74
2023/05/01 02:16:02;;;;;;;15.73;9.68;;;15.10;86.10;;;;;;7384444;19;20014;-75
2023/05/01 02:18:32;;;;;;;15.45;9.98;;;15.10;86.00;;;;;;7405559;19;20011;-74
2023/05/01 02:21:06;;;;;;;15.63;8.93;;;15.10;85.90;;;;;;7383029;19;20039;-75
2023/05/01 02:23:35;;;;;;;21.50;10.05;;;15.20;86.10;;;;;;7383048;19;20019;-75
2023/05/01 02:26:07;;;;;;;18.13;9.82;;;15.20;85.80;;;;;;7383276;19;20022;-74
2023/05/01 02:28:40;;;;;;;19.27;10.13;;;15.20;86.00;;;;;;7383113;19;20354;-73
2023/05/01 02:31:08;;;;;;;16.25;10.65;;;15.30;86.00;;;;;;7383268;19;20023;-75
2023/05/01 02:33:37;;;;;;;14.38;9.63;;;15.20;85.70;;;;;;7382913;19;20382;-74
2023/05/01 02:36:12;;;;;;;15.32;10.05;;;15.20;85.70;;;;;;7405640;19;20054;-74
2023/05/01 02:38:40;;;;;;;15.65;9.30;;;15.20;86.10;;;;;;7385108;19;20006;-74
2023/05/01 02:41:11;;;;;;;18.60;10.25;;;15.20;86.30;;;;;;7385409;19;20016;-74
2023/05/01 02:43:42;;;;;;;17.13;9.73;;;15.20;86.10;;;;;;7383551;19;20427;-74
2023/05/01 02:46:12;;;;;;;;;;;15.20;86.20;;;;;;7387166;19;20253;-75
2023/05/01 02:48:42;;;;;;;14.23;8.95;;;15.10;86.50;;;;;;7383563;19;19918;-75
2023/05/01 02:51:15;;;;;;;13.60;9.40;;;15.20;86.60;;;;;;7401815;19;20232;-74
2023/05/01 02:53:46;;;;;;;12.85;9.13;;;15.10;86.50;;;;;;7384590;19;20011;-74
2023/05/01 02:56:15;;;;;;;17.60;10.17;;;15.10;86.60;;;;;;7384606;19;20024;-74
2023/05/01 02:58:44;;;;;;;14.93;9.63;;;15.10;86.70;;;;;;7384689;19;20675;-74
2023/05/01 03:01:12;;;;;;;16.55;9.80;;;15.20;86.70;;;;;;7384147;19;19998;-74
2023/05/01 03:03:44;;;;;;;14.82;9.38;;;15.20;86.10;;;;;;7382917;19;20035;-74
2023/05/01 03:06:15;;;;;;;17.30;9.40;;;15.10;85.90;;;;;;7403647;19;20006;-74
2023/05/01 03:08:44;;;;;;;14.60;8.98;;;15.00;85.70;;;;;;7381650;19;20014;-74
2023/05/01 03:11:13;;;;;;;13.45;9.18;;;15.00;85.90;;;;;;7382123;19;20006;-74
2023/05/01 03:13:42;;;;;;;17.42;9.68;;;15.00;86.00;;;;;;7379973;19;20014;-74
2023/05/01 03:16:11;;;;;;;15.30;9.90;;;14.90;85.90;;;;;;7381143;19;20039;-75
2023/05/01 03:18:39;;;;;;;14.77;10.07;;;15.00;86.10;;;;;;7380634;19;20007;-74
2023/05/01 03:21:09;;;;;;;23.35;10.27;;;14.90;86.20;;;;;;7403363;19;20014;-74
2023/05/01 03:23:40;;;;;;;18.67;9.73;;;14.90;86.30;;;;;;7381027;19;20002;-74
2023/05/01 03:26:09;;;;;;;;;;;15.00;86.40;;;;;;7381693;19;20397;-74
2023/05/01 03:28:37;;;;;;;17.85;10.18;;;15.00;86.30;;;;;;7380159;19;19911;-75
2023/05/01 03:31:06;;;;;;;19.80;10.15;;;14.90;86.90;;;;;;7380283;19;19999;-74
2023/05/01 03:33:35;;;;;;;21.15;10.15;;;14.90;86.10;;;;;;7383573;19;20026;-74
2023/05/01 03:36:05;;;;;;;14.88;9.77;;;14.90;86.20;;;;;;7400989;19;20021;-74
2023/05/01 03:38:34;;;;;;;15.45;9.98;;;14.90;86.20;;;;;;7380047;19;20055;-74
2023/05/01 03:41:06;;;;;;;15.68;10.43;;;14.90;86.20;;;;;;7382843;19;20006;-75
2023/05/01 03:43:35;;;;;;;15.90;10.45;;;14.90;86.20;;;;;;7381638;19;20027;-74
2023/05/01 03:46:03;;;;;;;26.13;13.73;;;14.80;86.40;;;;;;7384437;19;20006;-74
2023/05/01 03:48:32;;;;;;;19.90;12.38;;;14.80;86.70;;;;;;7402930;19;20011;-74
2023/05/01 03:51:01;;;;;;;26.90;14.95;;;14.80;87.20;;;;;;7381214;19;20066;-74
2023/05/01 03:53:31;;;;;;;27.10;15.43;;;14.80;87.50;;;;;;7381160;19;20006;-74
2023/05/01 03:55:59;;;;;;;28.58;14.68;;;14.80;88.20;;;;;;7381271;19;20034;-74
2023/05/01 03:58:31;;;;;;;25.38;14.55;;;14.90;88.10;;;;;;7380784;19;20276;-74
2023/05/01 04:00:59;;;;;;;28.73;14.77;;;14.90;88.10;;;;;;7379686;19;20006;-74
2023/05/01 04:03:28;;;;;;;20.25;12.75;;;14.90;88.40;;;;;;7405473;19;20014;-74
2023/05/01 04:05:57;;;;;;;21.63;11.32;;;14.90;87.50;;;;;;7382806;19;20011;-74
2023/05/01 04:08:27;;;;;;;23.38;12.40;;;14.90;87.00;;;;;;7382209;19;20393;-74
2023/05/01 04:10:57;;;;;;;21.95;12.75;;;14.90;86.50;;;;;;7379134;19;20321;-74
2023/05/01 04:13:26;;;;;;;22.58;13.10;;;15.00;86.60;;;;;;7379899;19;20096;-74
2023/05/01 04:15:58;;;;;;;23.90;12.85;;;14.90;86.80;;;;;;7380278;19;20004;-73
2023/05/01 04:18:29;;;;;;;22.33;12.98;;;15.00;87.20;;;;;;7400989;19;20291;-75
2023/05/01 04:20:58;;;;;;;22.35;13.07;;;15.00;87.30;;;;;;7379149;19;20070;-74
2023/05/01 04:23:27;;;;;;;20.85;13.02;;;15.00;87.40;;;;;;7378318;19;20070;-74
2023/05/01 04:25:55;;;;;;;25.08;13.00;;;15.10;87.50;;;;;;7379150;19;20011;-73
2023/05/01 04:28:25;;;;;;;22.48;13.48;;;15.10;87.60;;;;;;7378928;19;20007;-74
2023/05/01 04:30:56;;;;;;;25.70;14.65;;;15.20;87.80;;;;;;7379072;19;20035;-74
2023/05/01 04:33:27;;;;;;;29.83;15.52;;;15.20;87.80;;;;;;7400544;19;20070;-74
2023/05/01 04:35:55;;;;;;;28.65;17.13;;;15.20;88.00;;;;;;7378980;19;20688;-74
2023/05/01 04:38:24;;;;;;;30.95;17.35;;;15.30;88.20;;;;;;7379220;19;20010;-74
2023/05/01 04:40:56;;;;;;;36.40;17.48;;;15.20;88.30;;;;;;7379528;19;20010;-74
2023/05/01 04:43:24;;;;;;;;;;;15.30;88.50;;;;;;7381091;19;20066;-74
2023/05/01 04:45:53;;;;;;;31.30;18.70;;;15.30;88.60;;;;;;7379835;19;19920;-74
2023/05/01 04:48:24;;;;;;;47.72;23.42;;;15.30;89.60;;;;;;7398886;19;20026;-74
2023/05/01 04:50:54;;;;;;;46.17;25.17;;;15.30;89.30;;;;;;7377205;19;20074;-75
2023/05/01 04:53:22;;;;;;;48.45;27.08;;;15.30;89.80;;;;;;7379905;19;20010;-74
2023/05/01 04:55:51;;;;;;;51.55;27.17;;;15.30;90.00;;;;;;7382440;19;20002;-74
2023/05/01 04:58:20;;;;;;;51.75;28.92;;;15.30;90.10;;;;;;7382729;19;20003;-74
2023/05/01 05:00:49;;;;;;;55.97;29.00;;;15.20;90.20;;;;;;7380430;19;20002;-74
2023/05/01 05:03:18;;;;;;;51.50;28.15;;;15.30;90.30;;;;;;7400432;19;20036;-74
2023/05/01 05:05:50;;;;;;;59.78;31.15;;;15.30;90.30;;;;;;7377828;19;20013;-74
2023/05/01 05:08:18;;;;;;;61.28;31.95;;;15.20;90.40;;;;;;7378943;19;20003;-74
2023/05/01 05:10:47;;;;;;;59.67;31.42;;;15.30;90.40;;;;;;7378413;19;20078;-73
2023/05/01 05:13:15;;;;;;;62.13;32.60;;;15.30;90.50;;;;;;7381184;19;20020;-73
2023/05/01 05:15:45;;;;;;;69.97;33.70;;;15.30;90.50;;;;;;7380732;19;20095;-74
2023/05/01 05:18:13;;;;;;;66.70;34.17;;;15.20;90.60;;;;;;7400623;19;20023;-74
2023/05/01 05:20:42;;;;;;;67.63;35.03;;;15.30;90.70;;;;;;7377612;19;20220;-72
2023/05/01 05:23:13;;;;;;;74.28;36.65;;;15.10;90.90;;;;;;7377883;19;20100;-73
2023/05/01 05:25:42;;;;;;;79.13;38.80;;;15.00;91.40;;;;;;7377798;19;20020;-74
2023/05/01 05:28:13;;;;;;;77.60;38.00;;;15.10;91.20;;;;;;7378049;19;20058;-73
2023/05/01 05:30:42;;;;;;;76.25;39.60;;;15.10;91.30;;;;;;7377445;19;20010;-74
2023/05/01 05:33:10;;;;;;;76.53;38.70;;;15.10;91.40;;;;;;7400413;19;20011;-75
2023/05/01 05:35:39;;;;;;;73.07;37.25;;;15.00;91.50;;;;;;7377763;19;20074;-74
2023/05/01 05:38:08;;;;;;;75.90;37.95;;;15.20;91.50;;;;;;7384898;19;20003;-74
2023/05/01 05:40:39;;;;;;;78.88;38.58;;;15.00;91.50;;;;;;7382525;19;20002;-73
2023/05/01 05:43:09;;;;;;;81.82;39.38;;;15.20;91.60;;;;;;7382536;19;20007;-73
2023/05/01 05:45:38;;;;;;;78.70;39.90;;;15.40;91.50;;;;;;7381925;19;20011;-72
2023/05/01 05:48:07;;;;;;;79.20;41.78;;;15.40;91.40;;;;;;7406108;19;20027;-73
2023/05/01 05:50:35;;;;;;;83.05;41.92;;;15.40;91.40;;;;;;7381938;19;20007;-74
2023/05/01 05:53:05;;;;;;;80.70;40.10;;;15.40;91.40;;;;;;7384633;19;20020;-73
2023/05/01 05:55:33;;;;;;;80.55;41.47;;;15.40;91.40;;;;;;7384469;19;20026;-73
2023/05/01 05:58:05;;;;;;;82.53;42.15;;;15.50;91.40;;;;;;7382853;19;20010;-73
2023/05/01 06:00:34;;;;;;;85.38;43.67;;;15.50;91.40;;;;;;7406367;19;20011;-73
2023/05/01 06:03:02;;;;;;;90.85;43.40;;;15.40;91.50;;;;;;7385344;19;20007;-73
2023/05/01 06:05:32;;;;;;;81.63;41.42;;;15.30;91.90;;;;;;7385822;19;20374;-74
2023/05/01 06:08:01;;;;;;;91.13;42.65;;;15.30;91.50;;;;;;7386855;19;20042;-73
2023/05/01 06:10:30;;;;;;;76.95;41.15;;;15.40;91.50;;;;;;7384036;19;20694;-73
2023/05/01 06:12:58;;;;;;;94.60;42.47;;;15.40;91.50;;;;;;7383821;19;20006;-73
2023/05/01 06:15:29;;;;;;;86.72;43.78;;;15.40;91.60;;;;;;7408102;19;20024;-74
2023/05/01 06:17:59;;;;;;;86.70;41.80;;;15.20;91.60;;;;;;7384896;19;20014;-74
2023/05/01 06:20:28;;;;;;;79.88;41.25;;;15.30;91.70;;;;;;7384832;19;20003;-73
2023/05/01 06:22:57;;;;;;;83.78;40.58;;;15.30;91.70;;;;;;7385983;19;20003;-73
2023/05/01 06:25:25;;;;;;;83.50;40.67;;;15.50;91.70;;;;;;7385730;19;20013;-74
2023/05/01 06:27:54;;;;;;;76.20;39.50;;;15.40;91.70;;;;;;7385304;19;20070;-73
2023/05/01 06:30:23;;;;;;;89.40;40.05;;;15.30;91.80;;;;;;7410221;19;19998;-74
2023/05/01 06:32:54;;;;;;;77.70;38.90;;;15.30;91.60;;;;;;7384691;19;20007;-73
2023/05/01 06:35:23;;;;;;;80.45;38.42;;;15.10;92.00;;;;;;7385006;19;20006;-73
2023/05/01 06:37:52;;;;;;;76.55;38.47;;;14.90;92.20;;;;;;7383541;19;20006;-73
2023/05/01 06:40:20;;;;;;;75.47;37.03;;;15.20;92.20;;;;;;7385086;19;20002;-73
2023/05/01 06:42:49;;;;;;;76.10;36.63;;;15.30;92.10;;;;;;7384623;19;20255;-74
2023/05/01 06:45:18;;;;;;;69.00;35.97;;;15.30;92.00;;;;;;7404043;19;20405;-73
2023/05/01 06:47:46;;;;;;;66.72;34.58;;;15.40;92.00;;;;;;7383697;19;20006;-73
2023/05/01 06:50:18;;;;;;;68.95;35.95;;;15.50;91.90;;;;;;7381492;19;20425;-73
2023/05/01 06:52:48;;;;;;;73.03;33.92;;;15.50;91.80;;;;;;7381558;19;20403;-74
2023/05/01 06:55:17;;;;;;;66.30;34.80;;;15.50;91.60;;;;;;7382880;19;20003;-74
2023/05/01 06:57:45;;;;;;;70.80;33.13;;;15.40;91.80;;;;;;7382274;19;20027;-73
2023/05/01 07:00:16;;;;;;;72.30;33.53;;;15.60;91.60;;;;;;7403758;19;20027;-73
2023/05/01 07:02:45;;;;;;;60.40;31.20;;;15.70;91.40;;;;;;7381653;19;20235;-73
2023/05/01 07:05:14;;;;;;;70.82;32.40;;;15.80;91.50;;;;;;7381250;19;20231;-73
2023/05/01 07:07:46;;;;;;;200.98;37.75;;;15.90;92.30;;;;;;7381823;19;20011;-74
2023/05/01 07:10:14;;;;;;;61.70;32.13;;;16.10;92.00;;;;;;7381067;19;20005;-73
2023/05/01 07:12:43;;;;;;;57.58;29.90;;;16.00;91.80;;;;;;7381892;19;20006;-73
2023/05/01 07:15:13;;;;;;;57.15;30.88;;;16.00;91.00;;;;;;7405473;19;20071;-73
2023/05/01 07:17:41;;;;;;;59.10;30.55;;;15.70;91.10;;;;;;7383996;19;20003;-74
2023/05/01 07:20:12;;;;;;;58.90;29.02;;;15.80;91.20;;;;;;7382471;19;20007;-74
2023/05/01 07:22:41;;;;;;;65.40;30.27;;;15.60;91.10;;;;;;7381024;19;20096;-74
2023/05/01 07:25:13;;;;;;;58.20;28.63;;;15.30;91.60;;;;;;7380156;19;20012;-74
2023/05/01 07:27:41;;;;;;;54.22;27.67;;;15.50;91.70;;;;;;7380861;19;20003;-74
2023/05/01 07:30:11;;;;;;;51.92;27.55;;;15.40;91.80;;;;;;7402613;19;20034;-73
2023/05/01 07:32:42;;;;;;;52.15;25.45;;;15.70;91.60;;;;;;7382199;19;20011;-73
2023/05/01 07:35:12;;;;;;;54.33;25.10;;;15.50;91.70;;;;;;7383909;19;20038;-74
2023/05/01 07:37:41;;;;;;;44.75;24.27;;;15.80;91.50;;;;;;7381385;19;20003;-74
2023/05/01 07:40:13;;;;;;;54.13;27.15;;;15.70;91.20;;;;;;7379796;19;20007;-74
2023/05/01 07:42:42;;;;;;;54.75;26.52;;;15.50;91.30;;;;;;7381419;19;20015;-74
2023/05/01 07:45:11;;;;;;;51.13;25.65;;;15.80;91.30;;;;;;7401811;19;20496;-74
2023/05/01 07:47:40;;;;;;;48.55;24.17;;;15.60;90.90;;;;;;7379868;19;19998;-74
2023/05/01 07:50:12;;;;;;;42.67;22.50;;;15.40;91.20;;;;;;7378449;19;20068;-74
2023/05/01 07:52:41;;;;;;;39.17;21.42;;;15.30;91.50;;;;;;7379798;19;20015;-74
2023/05/01 07:55:13;;;;;;;37.08;19.77;;;15.50;91.10;;;;;;7381312;19;20007;-74
2023/05/01 07:57:41;;;;;;;35.42;19.50;;;15.50;91.20;;;;;;7378335;19;20002;-74
2023/05/01 08:00:11;;;;;;;35.70;18.75;;;15.40;91.10;;;;;;7399968;19;20271;-74
2023/05/01 08:02:40;;;;;;;28.52;17.50;;;15.70;91.10;;;;;;7379548;19;20002;-74
2023/05/01 08:05:10;;;;;;;26.38;13.93;;;15.90;90.90;;;;;;7380131;19;20014;-74
2023/05/01 08:07:38;;;;;;;25.65;15.05;;;15.90;90.40;;;;;;7379808;19;20015;-74
2023/05/01 08:10:08;;;;;;;23.70;14.02;;;15.70;90.80;;;;;;7379146;19;20028;-74
2023/05/01 08:12:39;;;;;;;31.45;15.55;;;15.70;91.20;;;;;;7391784;19;20058;-74
2023/05/01 08:15:10;;;;;;;26.30;14.60;;;15.70;91.20;;;;;;7401136;19;20015;-74
2023/05/01 08:17:40;;;;;;;27.67;15.05;;;15.50;91.50;;;;;;7380945;19;20006;-74
2023/05/01 08:20:10;;;;;;;31.03;16.03;;;15.60;91.70;;;;;;7381798;19;20010;-74
2023/05/01 08:22:39;;;;;;;26.17;14.85;;;15.50;91.60;;;;;;7382329;19;20030;-74
2023/05/01 08:25:09;;;;;;;27.00;15.00;;;15.80;91.60;;;;;;7382566;19;20007;-74
2023/05/01 08:27:40;;;;;;;29.77;15.25;;;16.00;91.60;;;;;;7388100;19;20014;-74
2023/05/01 08:30:10;;;;;;;31.80;15.02;;;16.00;91.30;;;;;;7400237;19;20020;-74
2023/05/01 08:32:39;;;;;;;33.75;17.02;;;16.10;91.40;;;;;;7374921;19;20074;-75
2023/05/01 08:35:08;;;;;;;36.05;16.13;;;16.00;91.30;;;;;;7379058;19;20011;-74
2023/05/01 08:37:37;;;;;;;33.92;16.60;;;15.70;91.70;;;;;;7379287;19;20030;-74
2023/05/01 08:40:07;;;;;;;34.25;17.42;;;15.50;92.10;;;;;;7384739;19;20106;-79
2023/05/01 08:42:40;;;;;;;38.17;18.50;;;15.60;92.20;;;;;;7405258;19;20002;-78
2023/05/01 08:45:10;;;;;;;34.33;17.25;;;15.80;92.30;;;;;;7384014;19;20026;-76
2023/05/01 08:47:42;;;;;;;36.35;17.05;;;16.00;91.80;;;;;;7378953;19;20365;-74
2023/05/01 08:50:13;;;;;;;37.40;17.70;;;16.20;91.70;;;;;;7377377;19;20007;-75
2023/05/01 08:52:43;;;;;;;37.45;17.58;;;16.20;91.50;;;;;;7377850;19;20062;-78
2023/05/01 08:55:15;;;;;;;35.33;18.20;;;15.90;91.60;;;;;;7383275;19;20082;-78
2023/05/01 08:57:52;;;;;;;38.10;17.88;;;16.00;91.70;;;;;;7380680;19;20018;-78
2023/05/01 09:00:23;;;;;;;31.23;15.57;;;16.10;91.70;;;;;;7401064;19;20015;-76
2023/05/01 09:02:53;;;;;;;33.87;16.27;;;16.50;91.40;;;;;;7378875;19;20007;-77
2023/05/01 09:05:22;;;;;;;36.72;16.58;;;16.60;90.80;;;;;;7380126;19;20006;-77
2023/05/01 09:07:51;;;;;;;30.25;16.33;;;16.70;91.00;;;;;;7377280;19;20275;-76
2023/05/01 09:10:20;;;;;;;32.67;16.23;;;16.50;91.40;;;;;;7378005;19;20010;-75
2023/05/01 09:12:58;;;;;;;26.85;15.23;;;16.50;91.10;;;;;;7384101;19;20231;-76
2023/05/01 09:15:28;;;;;;;31.17;17.02;;;16.20;91.20;;;;;;7407431;19;20017;-76
2023/05/01 09:18:00;;;;;;;30.80;16.55;;;16.10;91.50;;;;;;7386647;19;20030;-76
2023/05/01 09:20:38;;;;;;;25.42;15.40;;;16.20;91.60;;;;;;7385295;19;20070;-77
2023/05/01 09:23:06;;;;;;;37.22;16.70;;;16.20;91.60;;;;;;7387384;19;20024;-76
2023/05/01 09:25:35;;;;;;;31.13;16.67;;;16.00;91.70;;;;;;7388485;19;20011;-78
2023/05/01 09:28:09;;;;;;;34.35;17.67;;;16.10;92.00;;;;;;7390276;19;20014;-77
2023/05/01 09:30:39;;;;;;;39.95;17.65;;;16.00;91.90;;;;;;7402741;19;20028;-76
2023/05/01 09:33:18;;;;;;;32.53;15.80;;;16.00;92.00;;;;;;7409431;19;20104;-77
2023/05/01 09:35:54;;;;;;;32.05;16.30;;;15.90;92.20;;;;;;7389442;19;20333;-77
2023/05/01 09:38:27;;;;;;;30.08;17.55;;;15.80;92.30;;;;;;7387414;19;20083;-77
2023/05/01 09:41:04;;;;;;;36.97;18.15;;;15.80;92.60;;;;;;7385999;19;20003;-76
2023/05/01 09:43:36;;;;;;;36.97;16.88;;;15.70;92.80;;;;;;7384595;19;20003;-77
2023/05/01 09:46:08;;;;;;;34.17;16.25;;;15.60;93.10;;;;;;7386216;19;20003;-76
2023/05/01 09:48:37;;;;;;;31.23;15.48;;;15.70;92.70;;;;;;7407117;19;20006;-76
2023/05/01 09:51:27;;;;;;;32.83;16.10;;;16.00;92.50;;;;;;7384534;19;20062;-76
2023/05/01 09:53:57;;;;;;;29.35;14.65;;;16.10;92.50;;;;;;7385471;19;20002;-75
2023/05/01 09:56:28;;;;;;;28.17;15.43;;;16.10;92.20;;;;;;7383961;19;20007;-76
2023/05/01 09:59:01;;;;;;;30.87;14.70;;;16.20;92.20;;;;;;7384285;19;20010;-75
2023/05/01 10:01:43;;;;;;;23.02;13.02;;;16.30;92.10;;;;;;7384483;19;20062;-75
2023/05/01 10:04:12;;;;;;;28.25;13.98;;;16.70;92.10;;;;;;7384060;19;20006;-75
2023/05/01 10:06:41;;;;;;;21.58;11.93;;;16.60;91.50;;;;;;7380778;19;20398;-75
2023/05/01 10:09:15;;;;;;;23.13;13.77;;;16.80;91.30;;;;;;7405258;19;20031;-75
2023/05/01 10:11:52;;;;;;;27.73;15.35;;;17.00;91.10;;;;;;7383313;19;20006;-75
2023/05/01 10:14:25;;;;;;;25.92;13.95;;;16.90;91.20;;;;;;7384892;19;20038;-76
2023/05/01 10:16:56;;;;;;;22.63;13.90;;;17.10;91.10;;;;;;7382976;19;20032;-76
2023/05/01 10:19:25;;;;;;;25.92;15.82;;;17.10;90.80;;;;;;7383939;19;20003;-76
2023/05/01 10:21:56;;;;;;;24.23;13.25;;;17.10;90.90;;;;;;7383059;19;20035;-76
2023/05/01 10:24:26;;;;;;;27.10;13.25;;;17.10;90.80;;;;;;7400450;19;20002;-75
2023/05/01 10:26:56;;;;;;;23.30;12.82;;;16.90;91.00;;;;;;7385484;19;20075;-75
2023/05/01 10:29:30;;;;;;;22.27;13.60;;;17.00;91.10;;;;;;7383672;19;20034;-75
2023/05/01 10:32:00;;;;;;;24.33;13.75;;;16.80;91.30;;;;;;7382499;19;20070;-76
2023/05/01 10:34:29;;;;;;;23.27;13.40;;;16.60;91.70;;;;;;7384111;19;20552;-77
2023/05/01 10:37:04;;;;;;;24.98;13.85;;;16.40;92.00;;;;;;7384104;19;20363;-77
2023/05/01 10:39:34;;;;;;;27.13;13.48;;;16.50;92.00;;;;;;7408634;19;20039;-77
2023/05/01 10:42:13;;;;;;;26.52;12.85;;;16.40;92.20;;;;;;7387319;19;20007;-77
2023/05/01 10:44:46;;;;;;;26.58;13.90;;;16.70;92.20;;;;;;7387244;19;20054;-78
2023/05/01 10:47:51;;;;;;;29.05;14.20;;;16.90;92.10;;;;;;7387975;19;20383;-77
2023/05/01 10:50:19;;;;;;;30.05;15.05;;;17.10;91.80;;;;;;7381755;19;20062;-77
2023/05/01 10:53:24;;;;;;;22.83;12.88;;;17.40;91.90;;;;;;7382196;19;20014;-77
2023/05/01 10:55:54;;;;;;;23.23;11.55;;;17.60;91.40;;;;;;7383967;19;20279;-77
2023/05/01 10:58:52;;;;;;;19.52;10.85;;;17.80;90.90;;;;;;7383860;19;20082;-77
2023/05/01 11:01:38;;;;;;;19.23;10.35;;;17.80;90.20;;;;;;7384589;19;20019;-77
2023/05/01 11:04:09;;;;;;;17.13;9.00;;;18.00;90.20;;;;;;7388480;19;20011;-78
2023/05/01 11:06:39;;;;;;;15.88;9.15;;;17.80;89.80;;;;;;7407634;19;20672;-78
2023/05/01 11:09:38;;;;;;;18.58;10.00;;;17.90;89.30;;;;;;7386036;19;20013;-78
2023/05/01 11:12:08;;;;;;;19.95;9.15;;;17.90;89.30;;;;;;7386178;19;20101;-77
2023/05/01 11:15:04;;;;;;;16.80;8.30;;;17.90;89.30;;;;;;7386531;19;20365;-80
2023/05/01 11:17:51;;;;;;;12.52;7.43;;;18.00;89.80;;;;;;7387897;19;20262;-78
2023/05/01 11:20:47;;;;;;;16.65;7.78;;;18.10;89.60;;;;;;7386966;19;20089;-74
2023/05/01 11:23:24;;;;;;;13.57;6.63;;;18.20;89.20;;;;;;7381332;19;20007;-77
2023/05/01 11:26:08;;;;;;;17.67;6.78;;;18.10;88.20;;;;;;7383544;19;20030;-78
2023/05/01 11:28:40;;;;;;;12.18;5.97;;;18.10;88.40;;;;;;7384559;19;20404;-77
2023/05/01 11:31:09;;;;;;;14.15;5.97;;;18.40;87.60;;;;;;7381988;19;20007;-80
2023/05/01 11:33:42;;;;;;;10.80;6.00;;;18.40;87.30;;;;;;7401287;19;20015;-77
2023/05/01 11:36:13;;;;;;;11.23;5.63;;;18.30;87.00;;;;;;7384644;19;20003;-78
2023/05/01 11:38:55;;;;;;;;;;;18.40;86.30;;;;;;7384442;19;20050;-77
2023/05/01 11:41:24;;;;;;;11.85;4.60;;;18.50;86.00;;;;;;7381947;19;19907;-78
2023/05/01 11:43:54;;;;;;;8.48;4.43;;;18.70;85.40;;;;;;7384475;19;20061;-78
2023/05/01 11:46:27;;;;;;;7.00;4.40;;;18.70;85.00;;;;;;7380223;19;20003;-77
2023/05/01 11:49:00;;;;;;;6.72;3.80;;;18.50;85.00;;;;;;7387752;19;20027;-78
2023/05/01 11:51:31;;;;;;;7.18;3.33;;;18.20;83.40;;;;;;7408474;19;20019;-78
2023/05/01 11:54:01;;;;;;;9.02;4.40;;;18.30;84.70;;;;;;7386189;19;20220;-78
2023/05/01 11:56:43;;;;;;;7.45;3.65;;;18.20;84.70;;;;;;7391602;19;20010;-79
2023/05/01 11:59:14;;;;;;;7.60;4.10;;;18.00;86.10;;;;;;7389476;19;20003;-78
2023/05/01 12:02:19;;;;;;;8.55;4.25;;;17.80;85.90;;;;;;7369368;19;20032;-82
2023/05/01 12:04:51;;;;;;;8.65;4.13;;;17.70;87.40;;;;;;7408569;19;20006;-77
2023/05/01 12:07:43;;;;;;;6.70;3.53;;;17.50;88.40;;;;;;7383179;19;20010;-77
2023/05/01 12:10:12;;;;;;;4.50;3.30;;;17.30;89.60;;;;;;7384945;19;20021;-77
2023/05/01 12:12:41;;;;;;;6.60;3.72;;;17.60;89.90;;;;;;7389388;19;20378;-77
2023/05/01 12:15:10;;;;;;;5.45;3.25;;;17.60;89.60;;;;;;7406938;19;20014;-77
2023/05/01 12:17:40;;;;;;;5.22;2.45;;;17.60;90.00;;;;;;7383055;19;20044;-77
2023/05/01 12:20:13;;;;;;;3.58;2.60;;;17.80;87.50;;;;;;7383155;19;20011;-77
2023/05/01 12:22:51;;;;;;;7.03;3.60;;;17.80;88.60;;;;;;7384511;19;20024;-77
2023/05/01 12:25:21;;;;;;;6.93;3.75;;;17.80;89.50;;;;;;7381840;19;20003;-77
2023/05/01 12:27:50;;;;;;;6.53;4.00;;;18.00;90.30;;;;;;7382804;19;20021;-76
2023/05/01 12:30:28;;;;;;;7.05;4.40;;;18.30;89.10;;;;;;7404969;19;20035;-77
2023/05/01 12:32:57;;;;;;;9.48;5.32;;;18.20;88.90;;;;;;7385982;19;20088;-77
2023/05/01 12:35:33;;;;;;;6.40;4.60;;;18.20;90.00;;;;;;7382837;19;20355;-77
2023/05/01 12:38:11;;;;;;;8.32;5.32;;;18.50;89.70;;;;;;7381623;19;20283;-77
2023/05/01 12:40:41;;;;;;;8.45;5.45;;;18.20;89.10;;;;;;7382692;19;20014;-78
2023/05/01 12:43:09;;;;;;;12.85;5.65;;;18.00;89.30;;;;;;7382105;19;20078;-77
2023/05/01 12:45:42;;;;;;;10.73;4.82;;;17.70;89.60;;;;;;7404752;19;20006;-80
2023/05/01 12:48:17;;;;;;;12.38;5.30;;;17.60;90.40;;;;;;7386146;19;20014;-77
2023/05/01 12:50:53;;;;;;;11.48;4.93;;;17.50;90.40;;;;;;7383469;19;20013;-77
2023/05/01 12:53:22;;;;;;;10.88;5.03;;;17.50;90.50;;;;;;7385516;19;20299;-77
2023/05/01 12:55:53;;;;;;;11.77;5.60;;;17.80;89.90;;;;;;7384194;19;20014;-76
2023/05/01 12:58:23;;;;;;;9.77;4.88;;;18.00;89.70;;;;;;7382502;19;20366;-77
2023/05/01 13:00:53;;;;;;;14.55;4.70;;;18.10;89.70;;;;;;7386181;19;20018;-76
2023/05/01 13:03:25;;;;;;;12.00;4.50;;;18.40;89.70;;;;;;7407907;19;20011;-77
2023/05/01 13:05:59;;;;;;;9.63;4.70;;;18.60;87.70;;;;;;7387543;19;20010;-77
2023/05/01 13:08:29;;;;;;;7.63;4.85;;;18.80;86.70;;;;;;7386049;19;20038;-77
2023/05/01 13:10:59;;;;;;;9.47;5.10;;;18.90;86.10;;;;;;7384865;19;20006;-77